createdAt,value
2017-04-15T00:00:00.569Z,0
2017-04-15T00:01:09.895Z,0
2017-04-15T00:02:20.161Z,0
2017-04-15T00:03:30.101Z,0
2017-04-15T00:04:40.362Z,0
2017-04-15T00:05:50.586Z,0
2017-04-15T00:07:00.184Z,0
2017-04-15T00:08:10.661Z,0
2017-04-15T00:09:20.956Z,0
2017-04-15T00:10:30.872Z,0
2017-04-15T00:11:41.074Z,0
2017-04-15T00:12:51.346Z,0
2017-04-15T00:14:01.817Z,0
2017-04-15T00:15:11.461Z,0
2017-04-15T00:16:21.367Z,0
2017-04-15T00:17:31.297Z,0
2017-04-15T00:18:41.509Z,0
2017-04-15T00:19:51.626Z,0
2017-04-15T00:21:01.537Z,0
2017-04-15T00:22:11.768Z,0
2017-04-15T00:23:22.003Z,0
2017-04-15T00:24:31.939Z,0
2017-04-15T00:25:42.102Z,0
2017-04-15T00:26:52.326Z,0
2017-04-15T00:28:02.572Z,0
2017-04-15T00:29:12.541Z,0
2017-04-15T00:30:22.526Z,0
2017-04-15T00:31:33.007Z,0
2017-04-15T00:32:42.938Z,0
2017-04-15T00:33:52.856Z,0
2017-04-15T00:35:03.074Z,0
2017-04-15T00:36:12.683Z,0
2017-04-15T00:37:22.890Z,0
2017-04-15T00:38:33.113Z,0
2017-04-15T00:39:42.433Z,0
2017-04-15T00:40:52.651Z,0
2017-04-15T00:42:02.588Z,0
2017-04-15T00:43:13.061Z,0
2017-04-15T00:44:23.000Z,0
2017-04-15T00:45:33.220Z,0
2017-04-15T00:46:43.144Z,0
2017-04-15T00:47:53.386Z,0
2017-04-15T00:49:03.461Z,0
2017-04-15T00:50:13.358Z,0
2017-04-15T00:51:23.568Z,0
2017-04-15T00:52:33.779Z,0
2017-04-15T00:53:43.399Z,0
2017-04-15T00:54:53.472Z,0
2017-04-15T00:56:03.686Z,0
2017-04-15T00:57:13.924Z,0
2017-04-15T00:58:24.150Z,0
2017-04-15T00:59:34.049Z,0
2017-04-15T01:00:44.095Z,0
2017-04-15T01:01:54.303Z,0
2017-04-15T01:03:04.926Z,0
2017-04-15T01:04:14.552Z,0
2017-04-15T01:05:24.449Z,0
2017-04-15T01:06:34.351Z,0
2017-04-15T01:07:44.557Z,0
2017-04-15T01:08:54.165Z,0
2017-04-15T01:10:04.088Z,0
2017-04-15T01:11:14.307Z,0
2017-04-15T01:12:24.368Z,0
2017-04-15T01:13:34.003Z,0
2017-04-15T01:14:43.630Z,0
2017-04-15T01:15:52.933Z,0
2017-04-15T01:17:02.864Z,0
2017-04-15T01:18:13.494Z,0
2017-04-15T01:19:23.414Z,0
2017-04-15T01:20:33.356Z,0
2017-04-15T01:21:43.579Z,0
2017-04-15T01:22:53.809Z,0
2017-04-15T01:24:03.869Z,0
2017-04-15T01:25:13.763Z,0
2017-04-15T01:26:23.971Z,0
2017-04-15T01:27:33.877Z,0
2017-04-15T01:28:44.103Z,0
2017-04-15T01:29:54.160Z,0
2017-04-15T01:31:04.383Z,0
2017-04-15T01:32:14.290Z,0
2017-04-15T01:33:24.204Z,0
2017-04-15T01:34:34.099Z,0
2017-04-15T01:35:44.348Z,0
2017-04-15T01:36:54.240Z,0
2017-04-15T01:38:04.442Z,0
2017-04-15T01:39:14.651Z,0
2017-04-15T01:40:24.558Z,0
2017-04-15T01:41:34.583Z,0
2017-04-15T01:42:44.494Z,0
2017-04-15T01:43:54.769Z,0
2017-04-15T01:45:04.906Z,0
2017-04-15T01:46:15.241Z,0
2017-04-15T01:47:25.706Z,0
2017-04-15T01:48:35.938Z,0
2017-04-15T01:49:45.532Z,0
2017-04-15T01:50:54.814Z,0
2017-04-15T01:52:05.047Z,0
2017-04-15T01:53:15.611Z,0
2017-04-15T01:54:25.843Z,0
2017-04-15T01:55:35.765Z,0
2017-04-15T01:56:45.351Z,0
2017-04-15T01:57:55.272Z,0
2017-04-15T01:59:05.528Z,0
2017-04-15T02:00:15.740Z,0
2017-04-15T02:01:25.967Z,0
2017-04-15T02:02:35.876Z,0
2017-04-15T02:03:45.807Z,0
2017-04-15T02:04:56.315Z,0
2017-04-15T02:06:06.531Z,0
2017-04-15T02:07:16.754Z,0
2017-04-15T02:08:26.962Z,0
2017-04-15T02:09:36.285Z,0
2017-04-15T02:10:46.025Z,0
2017-04-15T02:11:55.915Z,0
2017-04-15T02:13:06.157Z,0
2017-04-15T02:14:16.070Z,0
2017-04-15T02:15:26.229Z,0
2017-04-15T02:16:35.948Z,0
2017-04-15T02:17:45.855Z,0
2017-04-15T02:18:55.780Z,0
2017-04-15T02:20:05.381Z,0
2017-04-15T02:21:15.617Z,0
2017-04-15T02:22:25.175Z,0
2017-04-15T02:23:35.102Z,0
2017-04-15T02:24:45.343Z,0
2017-04-15T02:25:54.937Z,0
2017-04-15T02:27:04.541Z,0
2017-04-15T02:28:14.804Z,0
2017-04-15T02:29:24.711Z,0
2017-04-15T02:30:34.618Z,0
2017-04-15T02:31:44.515Z,0
2017-04-15T02:32:54.513Z,0
2017-04-15T02:34:05.066Z,0
2017-04-15T02:35:14.754Z,0
2017-04-15T02:36:24.368Z,0
2017-04-15T02:37:34.591Z,0
2017-04-15T02:38:43.880Z,0
2017-04-15T02:39:53.911Z,0
2017-04-15T02:41:03.496Z,0
2017-04-15T02:42:13.719Z,0
2017-04-15T02:43:23.956Z,0
2017-04-15T02:44:33.852Z,0
2017-04-15T02:45:43.939Z,0
2017-04-15T02:46:53.623Z,0
2017-04-15T02:48:03.920Z,0
2017-04-15T02:49:13.818Z,0
2017-04-15T02:50:23.719Z,0
2017-04-15T02:51:34.270Z,0
2017-04-15T02:52:44.164Z,0
2017-04-15T02:53:54.067Z,0
2017-04-15T02:55:03.970Z,0
2017-04-15T02:56:13.552Z,0
2017-04-15T02:57:23.193Z,0
2017-04-15T02:58:32.475Z,0
2017-04-15T02:59:42.685Z,0
2017-04-15T03:00:52.884Z,0
2017-04-15T03:02:02.469Z,0
2017-04-15T03:03:12.998Z,0
2017-04-15T03:04:23.196Z,0
2017-04-15T03:05:32.786Z,0
2017-04-15T03:06:42.702Z,0
2017-04-15T03:07:52.619Z,0
2017-04-15T03:09:02.888Z,0
2017-04-15T03:10:13.119Z,0
2017-04-15T03:11:23.321Z,0
2017-04-15T03:12:32.920Z,0
2017-04-15T03:13:43.130Z,0
2017-04-15T03:14:52.894Z,0
2017-04-15T03:16:02.796Z,0
2017-04-15T03:17:12.792Z,0
2017-04-15T03:18:23.170Z,0
2017-04-15T03:19:33.155Z,0
2017-04-15T03:20:43.605Z,0
2017-04-15T03:21:53.548Z,0
2017-04-15T03:23:03.752Z,0
2017-04-15T03:24:13.640Z,0
2017-04-15T03:25:23.533Z,0
2017-04-15T03:26:33.279Z,0
2017-04-15T03:27:43.185Z,0
2017-04-15T03:28:52.783Z,0
2017-04-15T03:30:02.686Z,0
2017-04-15T03:31:12.914Z,0
2017-04-15T03:32:23.087Z,0
2017-04-15T03:33:33.301Z,0
2017-04-15T03:34:43.506Z,0
2017-04-15T03:35:53.716Z,0
2017-04-15T03:37:03.929Z,0
2017-04-15T03:38:14.289Z,0
2017-04-15T03:39:24.193Z,0
2017-04-15T03:40:34.090Z,0
2017-04-15T03:41:43.981Z,0
2017-04-15T03:42:54.186Z,0
2017-04-15T03:44:04.557Z,0
2017-04-15T03:45:14.452Z,0
2017-04-15T03:46:24.359Z,0
2017-04-15T03:47:34.589Z,0
2017-04-15T03:48:44.491Z,0
2017-04-15T03:49:54.852Z,0
2017-04-15T03:51:04.749Z,0
2017-04-15T03:52:14.031Z,0
2017-04-15T03:53:23.838Z,0
2017-04-15T03:54:33.838Z,0
2017-04-15T03:55:44.311Z,0
2017-04-15T03:56:54.209Z,0
2017-04-15T03:58:04.414Z,0
2017-04-15T03:59:14.019Z,0
2017-04-15T04:00:24.225Z,0
2017-04-15T04:01:34.276Z,0
2017-04-15T04:02:44.175Z,0
2017-04-15T04:03:54.393Z,0
2017-04-15T04:05:04.292Z,0
2017-04-15T04:06:14.498Z,0
2017-04-15T04:07:24.256Z,0
2017-04-15T04:08:33.862Z,0
2017-04-15T04:09:43.465Z,0
2017-04-15T04:10:53.376Z,0
2017-04-15T04:12:03.594Z,0
2017-04-15T04:13:13.380Z,0
2017-04-15T04:14:23.282Z,0
2017-04-15T04:15:33.190Z,0
2017-04-15T04:16:43.091Z,0
2017-04-15T04:17:53.012Z,0
2017-04-15T04:19:03.084Z,0
2017-04-15T04:20:12.688Z,0
2017-04-15T04:21:22.595Z,0
2017-04-15T04:22:32.502Z,0
2017-04-15T04:23:42.094Z,0
2017-04-15T04:24:52.579Z,0
2017-04-15T04:26:02.507Z,4
2017-04-15T04:27:12.740Z,4
2017-04-15T04:28:22.968Z,4
2017-04-15T04:29:32.580Z,4
2017-04-15T04:30:42.678Z,4
2017-04-15T04:31:52.900Z,4
2017-04-15T04:33:02.804Z,8
2017-04-15T04:34:12.779Z,8
2017-04-15T04:35:22.992Z,12
2017-04-15T04:36:32.734Z,12
2017-04-15T04:37:42.962Z,12
2017-04-15T04:38:52.867Z,16
2017-04-15T04:40:03.074Z,12
2017-04-15T04:41:12.710Z,16
2017-04-15T04:42:22.458Z,16
2017-04-15T04:43:32.697Z,16
2017-04-15T04:44:42.611Z,20
2017-04-15T04:45:51.606Z,20
2017-04-15T04:47:01.837Z,20
2017-04-15T04:48:11.908Z,24
2017-04-15T04:49:22.166Z,24
2017-04-15T04:50:32.388Z,24
2017-04-15T04:51:41.993Z,24
2017-04-15T04:52:52.207Z,24
2017-04-15T04:54:01.956Z,32
2017-04-15T04:55:11.855Z,32
2017-04-15T04:56:21.746Z,32
2017-04-15T04:57:31.677Z,28
2017-04-15T04:58:41.883Z,32
2017-04-15T04:59:51.934Z,32
2017-04-15T05:01:01.532Z,32
2017-04-15T05:02:11.440Z,40
2017-04-15T05:03:21.117Z,36
2017-04-15T05:04:31.064Z,40
2017-04-15T05:05:41.588Z,44
2017-04-15T05:06:51.781Z,44
2017-04-15T05:08:01.133Z,52
2017-04-15T05:09:10.446Z,60
2017-04-15T05:10:20.664Z,64
2017-04-15T05:11:31.045Z,68
2017-04-15T05:12:40.999Z,76
2017-04-15T05:13:51.223Z,80
2017-04-15T05:15:01.451Z,88
2017-04-15T05:16:11.655Z,100
2017-04-15T05:17:22.022Z,108
2017-04-15T05:18:31.915Z,116
2017-04-15T05:19:41.207Z,120
2017-04-15T05:20:50.795Z,128
2017-04-15T05:22:00.719Z,152
2017-04-15T05:23:11.113Z,176
2017-04-15T05:24:21.224Z,204
2017-04-15T05:25:31.137Z,224
2017-04-15T05:26:41.040Z,232
2017-04-15T05:27:51.260Z,240
2017-04-15T05:29:01.305Z,244
2017-04-15T05:30:11.199Z,236
2017-04-15T05:31:21.399Z,252
2017-04-15T05:32:31.295Z,264
2017-04-15T05:33:40.880Z,252
2017-04-15T05:34:51.245Z,252
2017-04-15T05:36:01.456Z,260
2017-04-15T05:37:11.669Z,260
2017-04-15T05:38:20.975Z,268
2017-04-15T05:39:30.872Z,288
2017-04-15T05:40:40.879Z,292
2017-04-15T05:41:50.795Z,292
2017-04-15T05:43:01.020Z,300
2017-04-15T05:44:10.926Z,324
2017-04-15T05:45:21.140Z,340
2017-04-15T05:46:31.137Z,356
2017-04-15T05:47:41.033Z,384
2017-04-15T05:48:51.260Z,384
2017-04-15T05:50:01.465Z,400
2017-04-15T05:51:11.060Z,408
2017-04-15T05:52:21.220Z,420
2017-04-15T05:53:31.433Z,448
2017-04-15T05:54:41.020Z,476
2017-04-15T05:55:50.950Z,488
2017-04-15T05:57:01.243Z,464
2017-04-15T05:58:10.724Z,480
2017-04-15T05:59:21.050Z,452
2017-04-15T06:00:31.259Z,412
2017-04-15T06:01:41.146Z,400
2017-04-15T06:02:50.767Z,392
2017-04-15T06:04:00.845Z,372
2017-04-15T06:05:10.771Z,340
2017-04-15T06:06:20.378Z,312
2017-04-15T06:07:30.590Z,284
2017-04-15T06:08:40.793Z,272
2017-04-15T06:09:50.837Z,264
2017-04-15T06:11:01.437Z,264
2017-04-15T06:12:11.341Z,272
2017-04-15T06:13:21.245Z,300
2017-04-15T06:14:31.467Z,352
2017-04-15T06:15:41.813Z,344
2017-04-15T06:16:51.721Z,340
2017-04-15T06:18:01.919Z,356
2017-04-15T06:19:11.816Z,340
2017-04-15T06:20:21.102Z,356
2017-04-15T06:21:30.844Z,364
2017-04-15T06:22:40.755Z,340
2017-04-15T06:23:50.695Z,332
2017-04-15T06:25:00.621Z,328
2017-04-15T06:26:10.835Z,328
2017-04-15T06:27:20.581Z,308
2017-04-15T06:28:30.488Z,288
2017-04-15T06:29:40.385Z,308
2017-04-15T06:30:50.285Z,292
2017-04-15T06:32:00.505Z,252
2017-04-15T06:33:10.808Z,272
2017-04-15T06:34:21.018Z,288
2017-04-15T06:35:30.935Z,336
2017-04-15T06:36:41.167Z,360
2017-04-15T06:37:50.760Z,376
2017-04-15T06:39:00.768Z,320
2017-04-15T06:40:10.377Z,284
2017-04-15T06:41:20.288Z,312
2017-04-15T06:42:30.535Z,336
2017-04-15T06:43:41.124Z,300
2017-04-15T06:44:51.425Z,328
2017-04-15T06:46:01.642Z,308
2017-04-15T06:47:11.930Z,252
2017-04-15T06:48:21.841Z,272
2017-04-15T06:49:31.487Z,280
2017-04-15T06:50:41.831Z,312
2017-04-15T06:51:52.035Z,272
2017-04-15T06:53:01.519Z,340
2017-04-15T06:54:11.747Z,408
2017-04-15T06:55:21.963Z,408
2017-04-15T06:56:32.077Z,432
2017-04-15T06:57:42.311Z,460
2017-04-15T06:58:52.724Z,524
2017-04-15T07:00:02.641Z,604
2017-04-15T07:01:12.862Z,644
2017-04-15T07:02:23.376Z,808
2017-04-15T07:03:33.274Z,956
2017-04-15T07:04:43.490Z,916
2017-04-15T07:05:53.391Z,860
2017-04-15T07:07:03.303Z,768
2017-04-15T07:08:13.330Z,704
2017-04-15T07:09:23.542Z,724
2017-04-15T07:10:33.440Z,844
2017-04-15T07:11:43.652Z,880
2017-04-15T07:12:53.543Z,756
2017-04-15T07:14:03.257Z,768
2017-04-15T07:15:13.181Z,808
2017-04-15T07:16:23.086Z,944
2017-04-15T07:17:33.007Z,1040
2017-04-15T07:18:42.607Z,1016
2017-04-15T07:19:52.921Z,932
2017-04-15T07:21:02.820Z,1024
2017-04-15T07:22:12.108Z,1012
2017-04-15T07:23:21.714Z,1124
2017-04-15T07:24:31.637Z,1156
2017-04-15T07:25:41.947Z,1104
2017-04-15T07:26:51.842Z,980
2017-04-15T07:28:02.043Z,1060
2017-04-15T07:29:11.949Z,1220
2017-04-15T07:30:21.853Z,1184
2017-04-15T07:31:31.843Z,1144
2017-04-15T07:32:42.058Z,1000
2017-04-15T07:33:52.004Z,924
2017-04-15T07:35:02.229Z,1068
2017-04-15T07:36:12.439Z,1072
2017-04-15T07:37:22.430Z,1240
2017-04-15T07:38:32.643Z,1056
2017-04-15T07:39:43.239Z,1236
2017-04-15T07:40:53.170Z,1104
2017-04-15T07:42:03.395Z,1148
2017-04-15T07:43:13.769Z,1148
2017-04-15T07:44:23.699Z,976
2017-04-15T07:45:33.345Z,1116
2017-04-15T07:46:43.936Z,1060
2017-04-15T07:47:54.309Z,884
2017-04-15T07:49:03.252Z,744
2017-04-15T07:50:13.454Z,920
2017-04-15T07:51:23.700Z,1216
2017-04-15T07:52:33.376Z,1012
2017-04-15T07:53:43.302Z,976
2017-04-15T07:54:53.633Z,1092
2017-04-15T07:56:03.887Z,1072
2017-04-15T07:57:13.485Z,872
2017-04-15T07:58:23.387Z,1284
2017-04-15T07:59:33.300Z,1060
2017-04-15T08:00:43.306Z,1048
2017-04-15T08:01:52.308Z,932
2017-04-15T08:03:01.288Z,1040
2017-04-15T08:04:11.205Z,992
2017-04-15T08:05:21.109Z,1016
2017-04-15T08:06:31.421Z,1000
2017-04-15T08:07:41.638Z,1128
2017-04-15T08:08:51.845Z,1092
2017-04-15T08:10:02.046Z,1148
2017-04-15T08:11:11.948Z,1092
2017-04-15T08:12:21.036Z,1188
2017-04-15T08:13:30.963Z,800
2017-04-15T08:14:40.887Z,1184
2017-04-15T08:15:50.822Z,900
2017-04-15T08:17:00.770Z,1064
2017-04-15T08:18:11.093Z,912
2017-04-15T08:19:21.002Z,1048
2017-04-15T08:20:30.905Z,1016
2017-04-15T08:21:40.826Z,812
2017-04-15T08:22:50.117Z,696
2017-04-15T08:23:59.845Z,564
2017-04-15T08:25:09.747Z,624
2017-04-15T08:26:19.647Z,544
2017-04-15T08:27:29.538Z,544
2017-04-15T08:28:38.832Z,804
2017-04-15T08:29:48.845Z,972
2017-04-15T08:30:59.086Z,676
2017-04-15T08:32:08.995Z,832
2017-04-15T08:33:19.218Z,840
2017-04-15T08:34:29.452Z,816
2017-04-15T08:35:39.475Z,728
2017-04-15T08:36:50.208Z,516
2017-04-15T08:38:00.851Z,588
2017-04-15T08:39:10.471Z,612
2017-04-15T08:40:20.099Z,660
2017-04-15T08:41:30.115Z,636
2017-04-15T08:42:40.012Z,908
2017-04-15T08:43:50.232Z,844
2017-04-15T08:45:00.167Z,668
2017-04-15T08:46:10.390Z,840
2017-04-15T08:47:20.711Z,868
2017-04-15T08:48:30.635Z,920
2017-04-15T08:49:40.553Z,960
2017-04-15T08:50:50.165Z,928
2017-04-15T08:52:00.394Z,988
2017-04-15T08:53:10.088Z,1160
2017-04-15T08:54:20.015Z,1356
2017-04-15T08:55:29.606Z,1092
2017-04-15T08:56:39.518Z,1332
2017-04-15T08:57:49.423Z,1344
2017-04-15T08:58:59.733Z,1448
2017-04-15T09:00:09.324Z,1324
2017-04-15T09:01:19.531Z,1356
2017-04-15T09:02:29.138Z,1248
2017-04-15T09:03:39.350Z,1764
2017-04-15T09:04:50.377Z,1476
2017-04-15T09:06:01.949Z,1480
2017-04-15T09:07:12.608Z,1528
2017-04-15T09:08:22.212Z,1636
2017-04-15T09:09:32.420Z,1460
2017-04-15T09:10:42.627Z,1184
2017-04-15T09:11:51.942Z,1156
2017-04-15T09:13:02.574Z,876
2017-04-15T09:14:12.169Z,1024
2017-04-15T09:15:21.454Z,1208
2017-04-15T09:16:31.852Z,1356
2017-04-15T09:17:42.186Z,1412
2017-04-15T09:18:52.704Z,1484
2017-04-15T09:20:03.099Z,1124
2017-04-15T09:21:12.730Z,1264
2017-04-15T09:22:23.106Z,1344
2017-04-15T09:23:33.321Z,1384
2017-04-15T09:24:43.249Z,1368
2017-04-15T09:25:53.466Z,1728
2017-04-15T09:27:03.713Z,1620
2017-04-15T09:28:13.798Z,1832
2017-04-15T09:29:23.709Z,1336
2017-04-15T09:30:33.365Z,1200
2017-04-15T09:31:42.971Z,1540
2017-04-15T09:32:53.183Z,1164
2017-04-15T09:34:03.550Z,1212
2017-04-15T09:35:13.145Z,1428
2017-04-15T09:36:23.345Z,1792
2017-04-15T09:37:33.270Z,1356
2017-04-15T09:38:42.873Z,2160
2017-04-15T09:39:52.931Z,1556
2017-04-15T09:41:02.843Z,1920
2017-04-15T09:42:12.739Z,1200
2017-04-15T09:43:22.639Z,1172
2017-04-15T09:44:32.540Z,836
2017-04-15T09:45:42.602Z,1000
2017-04-15T09:46:52.524Z,956
2017-04-15T09:48:02.121Z,840
2017-04-15T09:49:12.331Z,940
2017-04-15T09:50:22.541Z,896
2017-04-15T09:51:32.588Z,852
2017-04-15T09:52:41.891Z,784
2017-04-15T09:53:51.791Z,668
2017-04-15T09:55:01.381Z,636
2017-04-15T09:56:11.294Z,736
2017-04-15T09:57:21.665Z,700
2017-04-15T09:58:31.912Z,792
2017-04-15T09:59:41.961Z,760
2017-04-15T10:00:51.860Z,820
2017-04-15T10:02:01.776Z,800
2017-04-15T10:03:11.856Z,848
2017-04-15T10:04:22.063Z,884
2017-04-15T10:05:31.965Z,748
2017-04-15T10:06:42.167Z,576
2017-04-15T10:07:52.377Z,764
2017-04-15T10:09:02.422Z,800
2017-04-15T10:10:12.333Z,680
2017-04-15T10:11:22.260Z,624
2017-04-15T10:12:32.197Z,884
2017-04-15T10:13:42.147Z,1016
2017-04-15T10:14:52.526Z,972
2017-04-15T10:16:02.757Z,1016
2017-04-15T10:17:12.089Z,916
2017-04-15T10:18:22.371Z,852
2017-04-15T10:19:32.325Z,756
2017-04-15T10:20:42.716Z,828
2017-04-15T10:21:52.951Z,864
2017-04-15T10:23:02.601Z,872
2017-04-15T10:24:12.533Z,1168
2017-04-15T10:25:22.159Z,1144
2017-04-15T10:26:32.256Z,1404
2017-04-15T10:27:42.515Z,1156
2017-04-15T10:28:52.462Z,1080
2017-04-15T10:30:02.393Z,1156
2017-04-15T10:31:11.680Z,1120
2017-04-15T10:32:21.433Z,1260
2017-04-15T10:33:31.634Z,1412
2017-04-15T10:34:41.864Z,1132
2017-04-15T10:35:51.762Z,1148
2017-04-15T10:37:01.966Z,992
2017-04-15T10:38:11.718Z,1304
2017-04-15T10:39:21.629Z,1948
2017-04-15T10:40:31.850Z,1180
2017-04-15T10:41:41.563Z,1180
2017-04-15T10:42:51.923Z,1172
2017-04-15T10:44:02.572Z,1116
2017-04-15T10:45:12.480Z,1248
2017-04-15T10:46:22.520Z,1388
2017-04-15T10:47:32.739Z,1680
2017-04-15T10:48:42.963Z,2088
2017-04-15T10:49:53.284Z,2452
2017-04-15T10:51:03.500Z,2308
2017-04-15T10:52:13.398Z,2152
2017-04-15T10:53:23.614Z,2248
2017-04-15T10:54:33.831Z,1988
2017-04-15T10:55:44.166Z,2316
2017-04-15T10:56:54.365Z,2648
2017-04-15T10:58:04.269Z,2480
2017-04-15T10:59:13.864Z,2452
2017-04-15T11:00:24.079Z,2212
2017-04-15T11:01:34.394Z,2552
2017-04-15T11:02:44.315Z,2260
2017-04-15T11:03:54.547Z,2328
2017-04-15T11:05:04.153Z,2060
2017-04-15T11:06:13.864Z,1696
2017-04-15T11:07:24.319Z,1984
2017-04-15T11:08:33.914Z,2272
2017-04-15T11:09:44.459Z,2200
2017-04-15T11:10:54.057Z,2328
2017-04-15T11:12:04.256Z,1960
2017-04-15T11:13:14.318Z,1644
2017-04-15T11:14:24.554Z,2468
2017-04-15T11:15:33.871Z,2300
2017-04-15T11:16:43.797Z,1912
2017-04-15T11:17:54.013Z,1924
2017-04-15T11:19:04.374Z,1692
2017-04-15T11:20:14.277Z,1776
2017-04-15T11:21:23.906Z,1864
2017-04-15T11:22:34.111Z,1948
2017-04-15T11:23:44.008Z,2296
2017-04-15T11:24:54.390Z,1572
2017-04-15T11:26:04.280Z,1516
2017-04-15T11:27:14.208Z,1480
2017-04-15T11:28:23.807Z,1424
2017-04-15T11:29:33.771Z,1244
2017-04-15T11:30:44.055Z,912
2017-04-15T11:31:54.124Z,1088
2017-04-15T11:33:03.952Z,1876
2017-04-15T11:34:13.748Z,2216
2017-04-15T11:35:23.656Z,1724
2017-04-15T11:36:33.725Z,2196
2017-04-15T11:37:43.312Z,2332
2017-04-15T11:38:53.212Z,2436
2017-04-15T11:40:03.132Z,2436
2017-04-15T11:41:13.038Z,2304
2017-04-15T11:42:22.790Z,2320
2017-04-15T11:43:32.395Z,2328
2017-04-15T11:44:42.649Z,2600
2017-04-15T11:45:53.232Z,2864
2017-04-15T11:47:04.117Z,2816
2017-04-15T11:48:14.624Z,2720
2017-04-15T11:49:24.850Z,2796
2017-04-15T11:53:07.287Z,3280
2017-04-15T11:54:17.520Z,3248
2017-04-15T11:55:27.518Z,3040
2017-04-15T11:56:37.441Z,2708
2017-04-15T11:57:47.079Z,2500
2017-04-15T11:58:57.497Z,2484
2017-04-15T12:00:07.636Z,2472
2017-04-15T12:01:18.102Z,2576
2017-04-15T12:02:28.092Z,2404
2017-04-15T12:03:38.133Z,2240
2017-04-15T12:04:48.606Z,2308
2017-04-15T12:05:58.714Z,2028
2017-04-15T12:07:08.353Z,1980
2017-04-15T12:08:18.351Z,2364
2017-04-15T12:09:28.274Z,2684
2017-04-15T12:10:38.273Z,2800
2017-04-15T12:11:48.495Z,2836
2017-04-15T12:12:58.712Z,3008
2017-04-15T12:14:08.607Z,2932
2017-04-15T12:15:18.516Z,3188
2017-04-15T12:16:29.688Z,3024
2017-04-15T12:17:40.017Z,2288
2017-04-15T12:18:50.769Z,2012
2017-04-15T12:20:02.109Z,2000
2017-04-15T12:21:12.602Z,1820
2017-04-15T12:22:23.293Z,1920
2017-04-15T12:23:34.043Z,1760
2017-04-15T12:24:45.412Z,1780
2017-04-15T12:25:55.324Z,1476
2017-04-15T12:27:04.293Z,1168
2017-04-15T12:28:13.740Z,996
2017-04-15T12:29:23.640Z,884
2017-04-15T12:30:33.855Z,912
2017-04-15T12:31:43.763Z,800
2017-04-15T12:32:53.979Z,736
2017-04-15T12:34:04.040Z,668
2017-04-15T12:35:14.248Z,576
2017-04-15T12:36:24.450Z,548
2017-04-15T12:37:33.764Z,484
2017-04-15T12:38:43.077Z,584
2017-04-15T12:39:53.129Z,592
2017-04-15T12:41:03.063Z,532
2017-04-15T12:42:12.663Z,404
2017-04-15T12:43:22.618Z,332
2017-04-15T12:44:32.576Z,304
2017-04-15T12:45:42.680Z,316
2017-04-15T12:46:53.018Z,268
2017-04-15T12:48:02.196Z,300
2017-04-15T12:49:12.110Z,316
2017-04-15T12:50:22.028Z,308
2017-04-15T12:51:32.356Z,320
2017-04-15T12:52:42.569Z,324
2017-04-15T12:53:52.783Z,284
2017-04-15T12:55:02.687Z,288
2017-04-15T12:56:12.593Z,228
2017-04-15T12:57:22.598Z,224
2017-04-15T12:58:32.832Z,296
2017-04-15T12:59:42.419Z,296
2017-04-15T13:00:52.315Z,216
2017-04-15T13:02:02.214Z,248
2017-04-15T13:03:12.226Z,324
2017-04-15T13:04:21.529Z,256
2017-04-15T13:05:31.804Z,264
2017-04-15T13:06:42.074Z,508
2017-04-15T13:07:51.976Z,500
2017-04-15T13:09:01.697Z,400
2017-04-15T13:10:11.903Z,340
2017-04-15T13:11:22.112Z,308
2017-04-15T13:12:32.033Z,288
2017-04-15T13:13:42.234Z,288
2017-04-15T13:14:52.537Z,256
2017-04-15T13:16:02.439Z,260
2017-04-15T13:17:12.033Z,240
2017-04-15T13:18:22.240Z,232
2017-04-15T13:19:32.467Z,236
2017-04-15T13:20:42.526Z,228
2017-04-15T13:21:52.767Z,248
2017-04-15T13:23:02.380Z,244
2017-04-15T13:24:12.615Z,272
2017-04-15T13:25:22.815Z,252
2017-04-15T13:26:33.171Z,232
2017-04-15T13:27:43.067Z,332
2017-04-15T13:28:52.997Z,436
2017-04-15T13:30:02.922Z,472
2017-04-15T13:31:13.131Z,536
2017-04-15T13:32:22.869Z,688
2017-04-15T13:33:32.991Z,816
2017-04-15T13:34:43.397Z,880
2017-04-15T13:35:53.542Z,948
2017-04-15T13:37:03.751Z,924
2017-04-15T13:38:13.490Z,1004
2017-04-15T13:39:23.756Z,1112
2017-04-15T13:40:33.961Z,1156
2017-04-15T13:41:44.178Z,1460
2017-04-15T13:42:53.786Z,1800
2017-04-15T13:44:03.947Z,1848
2017-04-15T13:45:14.212Z,1748
2017-04-15T13:46:24.114Z,1796
2017-04-15T13:47:33.720Z,1764
2017-04-15T13:48:43.847Z,1648
2017-04-15T13:49:53.921Z,1636
2017-04-15T13:51:03.525Z,1760
2017-04-15T13:52:13.504Z,1600
2017-04-15T13:53:23.417Z,1520
2017-04-15T13:54:33.635Z,1432
2017-04-15T13:55:43.408Z,1400
2017-04-15T13:56:53.650Z,1372
2017-04-15T13:58:03.564Z,1452
2017-04-15T13:59:13.497Z,1744
2017-04-15T14:00:23.707Z,2160
2017-04-15T14:01:33.486Z,1932
2017-04-15T14:02:43.695Z,1580
2017-04-15T14:03:53.922Z,1460
2017-04-15T14:05:04.226Z,1484
2017-04-15T14:06:14.139Z,1468
2017-04-15T14:07:24.183Z,1468
2017-04-15T14:08:34.382Z,1472
2017-04-15T14:09:44.598Z,1416
2017-04-15T14:10:54.817Z,1364
2017-04-15T14:12:05.026Z,1656
2017-04-15T14:13:15.092Z,2036
2017-04-15T14:14:25.669Z,2088
2017-04-15T14:15:36.087Z,1784
2017-04-15T14:16:45.999Z,1636
2017-04-15T14:17:55.921Z,1664
2017-04-15T14:19:06.345Z,1904
2017-04-15T14:20:15.941Z,2016
2017-04-15T14:21:26.166Z,1968
2017-04-15T14:22:36.366Z,1848
2017-04-15T14:23:46.288Z,1788
2017-04-15T14:24:56.362Z,1888
2017-04-15T14:26:06.578Z,1888
2017-04-15T14:27:16.776Z,1884
2017-04-15T14:28:26.670Z,1860
2017-04-15T14:29:36.583Z,2132
2017-04-15T14:30:46.419Z,2408
2017-04-15T14:31:56.342Z,2572
2017-04-15T14:33:05.933Z,2672
2017-04-15T14:34:16.149Z,2732
2017-04-15T14:35:26.349Z,2660
2017-04-15T14:36:36.087Z,2508
2017-04-15T14:37:45.695Z,2376
2017-04-15T14:38:55.598Z,2488
2017-04-15T14:40:05.524Z,2584
2017-04-15T14:41:15.509Z,2524
2017-04-15T14:42:25.566Z,2388
2017-04-15T14:43:34.854Z,2280
2017-04-15T14:44:44.442Z,2176
2017-04-15T14:45:54.363Z,1952
2017-04-15T14:47:03.971Z,1800
2017-04-15T14:48:14.406Z,1776
2017-04-15T14:49:24.660Z,1864
2017-04-15T14:50:34.425Z,2040
2017-04-15T14:51:44.326Z,2088
2017-04-15T14:52:54.554Z,2192
2017-04-15T14:54:04.556Z,2244
2017-04-15T14:55:14.476Z,2232
2017-04-15T14:56:24.079Z,2296
2017-04-15T14:57:34.008Z,2344
2017-04-15T14:58:43.595Z,2276
2017-04-15T14:59:53.920Z,2164
2017-04-15T15:01:04.134Z,2172
2017-04-15T15:02:13.745Z,2168
2017-04-15T15:03:23.988Z,2060
2017-04-15T15:04:33.906Z,2028
2017-04-15T15:05:44.286Z,2024
2017-04-15T15:06:54.506Z,1968
2017-04-15T15:08:04.139Z,1832
2017-04-15T15:09:14.050Z,1820
2017-04-15T15:10:23.968Z,1820
2017-04-15T15:11:33.353Z,1864
2017-04-15T15:12:43.548Z,1700
2017-04-15T15:13:53.206Z,1532
2017-04-15T15:15:03.427Z,1472
2017-04-15T15:16:13.342Z,1344
2017-04-15T15:17:23.705Z,1256
2017-04-15T15:18:33.668Z,1300
2017-04-15T15:19:42.998Z,1172
2017-04-15T15:20:52.600Z,848
2017-04-15T15:22:02.495Z,888
2017-04-15T15:23:12.851Z,1064
2017-04-15T15:24:22.762Z,1180
2017-04-15T15:25:32.361Z,1264
2017-04-15T15:26:42.577Z,1292
2017-04-15T15:27:52.829Z,1540
2017-04-15T15:29:03.543Z,1688
2017-04-15T15:30:13.430Z,1656
2017-04-15T15:31:23.635Z,1568
2017-04-15T15:32:33.240Z,1592
2017-04-15T15:33:43.146Z,1560
2017-04-15T15:34:54.183Z,1504
2017-04-15T15:36:05.032Z,1524
2017-04-15T15:37:15.238Z,1536
2017-04-15T15:38:25.597Z,1604
2017-04-15T15:39:36.258Z,1632
2017-04-15T15:40:46.629Z,1660
2017-04-15T15:41:57.242Z,1720
2017-04-15T15:43:08.241Z,1776
2017-04-15T15:44:18.524Z,1736
2017-04-15T15:45:28.807Z,1692
2017-04-15T15:46:38.556Z,1612
2017-04-15T15:47:48.767Z,1452
2017-04-15T15:48:58.713Z,1368
2017-04-15T15:50:08.639Z,1488
2017-04-15T15:51:18.857Z,1572
2017-04-15T15:52:28.925Z,1492
2017-04-15T15:53:38.231Z,1392
2017-04-15T15:54:48.469Z,1328
2017-04-15T15:55:58.077Z,1372
2017-04-15T15:57:08.410Z,1448
2017-04-15T15:58:18.197Z,1528
2017-04-15T15:59:28.121Z,1564
2017-04-15T16:00:38.353Z,1548
2017-04-15T16:01:48.914Z,1500
2017-04-15T16:02:59.059Z,1460
2017-04-15T16:04:09.145Z,1432
2017-04-15T16:05:19.062Z,1432
2017-04-15T16:06:28.987Z,1452
2017-04-15T16:07:38.919Z,1452
2017-04-15T16:08:49.150Z,1496
2017-04-15T16:09:59.528Z,1512
2017-04-15T16:11:09.445Z,1468
2017-04-15T16:12:19.365Z,1388
2017-04-15T16:13:29.275Z,1336